Portada
METAR-TAF:

METAR-TAF

Aeroports :

Iaroslavl, Rússia

latitud: 57-33-38N, longitud: 040-09-27E, altitud: 87 m

Observació

L'informe es va fer fa 16 minuts, a les 16:00 UTC
Vent 6 kt del Sud-Oest
Temperatura 25°C
Humitat 44%
Pressió 1023 hPa
Visibilitat 10 km o més
sense núvols per sota de 1500 mi sense presència de cumulonimbus.

METAR: UUDL 181600Z 22003MPS CAVOK 25/12 Q1023 R23/010060 NOSIG RMK QFE759

Hora: 19:16 (16:16 UTC)

Pronòstic

L'informe es va fer fa 2 hores i 16 minuts, a les 14:00 UTC
Pronòstic vàlid del 18 a les 15 UTC al 19 a les 15 UTC
Vent 6 kt del Sud-Oest
Visibilitat 10 km o més
sense núvols per sota de 1500 mi sense presència de cumulonimbus.

TAF: UUDL 181400Z 1815/1915 23003MPS CAVOK TX30/1913Z TN14/1901Z

Observacions i pronòstics meteorològics de més de 4000 aeroports (METAR i TAF).

Les estacions disponibles són els punts grocs i vermells al mapa.

Posi el ratolí al punt desitjat per veure el nom de l'estació.

Feu clic per veure les observacions i els pronòstics meteorològics.

Per canviar el mapa: feu clic els botons verds amb una creu de color negre per apropar; al botó verd amb un guió per allunyar la imatge; o en les fletxes verdes per a mapes adjacents.


METAR-TAF: